Airfield :







YOU CAN JOIN US ON...

 
LOGIN :

Register | Disclaimer

   EN    FR    IT 

 









Legend :    VFR   Marginal VFR   IFR   Intensive IFR   Very Intensive IFR
Visi :
Ceiling :
>= 8 km
>= 3000ft
5 to 8 km
1000 to 3000 ft
1500m to 5 km
500 to 1000 ft
800 to 1500m
200 to 500 ft
< 800m
< 200 ft
Symbols :   Thunderstorms  Fog  Heavy snow  Heavy precipitations  Wind > 20 kt






- Airport Elevation : 199 ft
- IATA code : YRQ


CYRQ - Trois-Rivières

CURRENT METAR :
  • 161200Z AUTO 24005KT 9SM CLR M14/M18 A3016 RMK SLP221

EXPIRED METARs :
  • 161100Z AUTO 24007KT 9SM CLR M13/M19 A3015 RMK SLP216
  • 161000Z AUTO 24005KT 9SM CLR M13/M19 A3013 RMK SLP210

TAF TAF CYRQ
Valid from the 16 at 08:00 until the 16 at 20:00 UTC


160738Z 1608/1620 25010KT P6SM FEW030 RMK FCST BASED ON AUTO OBS. NXT FCST BY 161400Z



MET'MAP, your aeronautical weather chart ! - Copyright ORBIFLY December 2007 - Disclaimer

ORBIFLY MET'MAP TEAM :

Programming & Development : Alexandra Zaïnal
Concept & original design : Baudouin d'Aumeries
Assistance for programming : Marc-Olivier Méhu
Technical & hardware support : Manuel Goepfert

Contact : metmap@orbifly.com




SOURCES & CREDITS :

   NOAA